createdAt,value
2022-10-05T00:04:12.093Z,100.00
2022-10-05T00:14:27.943Z,100.00
2022-10-05T00:24:30.606Z,100.00
2022-10-05T00:34:35.172Z,100.00
2022-10-05T00:45:05.536Z,100.00
2022-10-05T00:55:26.079Z,100.00
2022-10-05T01:05:33.648Z,100.00
2022-10-05T01:15:43.221Z,100.00
2022-10-05T01:26:36.121Z,100.00
2022-10-05T01:36:44.544Z,100.00
2022-10-05T01:47:09.585Z,100.00
2022-10-05T01:57:12.151Z,100.00
2022-10-05T02:07:36.765Z,100.00
2022-10-05T02:18:04.524Z,100.00
2022-10-05T02:28:14.318Z,100.00
2022-10-05T02:38:56.154Z,100.00
2022-10-05T02:49:24.378Z,100.00
2022-10-05T02:59:38.902Z,100.00
2022-10-05T03:10:01.208Z,100.00
2022-10-05T03:20:18.440Z,100.00
2022-10-05T03:30:22.984Z,100.00
2022-10-05T03:40:43.288Z,100.00
2022-10-05T03:51:21.283Z,100.00
2022-10-05T04:01:32.503Z,100.00
2022-10-05T04:11:40.520Z,100.00
2022-10-05T04:21:52.510Z,100.00
2022-10-05T04:32:23.651Z,100.00
2022-10-05T04:42:38.311Z,100.00
2022-10-05T04:53:13.602Z,100.00
2022-10-05T05:03:32.557Z,100.00
2022-10-05T05:14:14.192Z,100.00
2022-10-05T05:24:36.617Z,100.00
2022-10-05T05:35:01.996Z,100.00
2022-10-05T05:45:17.753Z,100.00
2022-10-05T05:55:41.622Z,100.00
2022-10-05T06:05:54.037Z,100.00
2022-10-05T06:16:18.935Z,100.00
2022-10-05T06:26:44.745Z,100.00
2022-10-05T06:36:53.159Z,100.00
2022-10-05T06:47:20.922Z,100.00
2022-10-05T06:57:32.361Z,100.00
2022-10-05T07:07:51.536Z,100.00
2022-10-05T07:18:09.129Z,100.00
2022-10-05T07:28:33.432Z,100.00
2022-10-05T07:38:42.203Z,100.00
2022-10-05T07:49:05.127Z,100.00
2022-10-05T07:59:25.445Z,100.00
2022-10-05T08:09:33.023Z,100.00
2022-10-05T08:19:46.956Z,100.00
2022-10-05T08:29:56.912Z,98.13
2022-10-05T08:40:43.224Z,82.92
2022-10-05T08:51:07.698Z,76.15
2022-10-05T09:01:44.193Z,78.26
2022-10-05T09:12:22.775Z,65.91
2022-10-05T09:22:39.546Z,65.77
2022-10-05T09:33:08.560Z,60.74
2022-10-05T09:43:45.109Z,51.42
2022-10-05T09:54:07.367Z,53.30
2022-10-05T10:04:26.665Z,56.38
2022-10-05T10:14:53.055Z,50.17
2022-10-05T10:25:19.608Z,46.12
2022-10-05T10:46:07.169Z,56.55
2022-10-05T10:56:43.701Z,50.40
2022-10-05T11:17:06.899Z,43.25
2022-10-05T11:27:44.318Z,44.07
2022-10-05T11:38:13.471Z,39.60
2022-10-05T11:48:43.033Z,40.77
2022-10-05T11:59:28.980Z,37.64
2022-10-05T12:10:14.851Z,42.75
2022-10-05T12:20:30.468Z,43.97
2022-10-05T12:30:49.318Z,44.44
2022-10-05T12:41:22.519Z,43.19
2022-10-05T12:51:46.204Z,43.92
2022-10-05T13:01:50.849Z,40.69
2022-10-05T13:11:58.720Z,47.53
2022-10-05T13:22:01.807Z,37.28
2022-10-05T13:32:10.280Z,35.15
2022-10-05T13:42:51.028Z,38.92
2022-10-05T13:53:24.622Z,42.36
2022-10-05T14:03:37.958Z,44.63
2022-10-05T14:13:46.884Z,46.37
2022-10-05T14:23:52.079Z,47.49
2022-10-05T14:33:53.710Z,47.78
2022-10-05T14:44:17.718Z,53.42
2022-10-05T14:54:47.047Z,58.15
2022-10-05T15:05:08.236Z,60.29
2022-10-05T15:15:28.835Z,61.81
2022-10-05T15:25:46.996Z,64.08
2022-10-05T15:36:03.269Z,67.59
2022-10-05T15:46:40.388Z,70.31
2022-10-05T15:56:50.180Z,73.50
2022-10-05T16:07:20.574Z,76.85
2022-10-05T16:17:49.285Z,81.86
2022-10-05T16:28:12.612Z,85.28
2022-10-05T16:38:38.622Z,89.45
2022-10-05T16:49:04.295Z,92.81
2022-10-05T16:59:06.911Z,95.65
2022-10-05T17:09:27.106Z,97.61
2022-10-05T17:19:47.484Z,100.00
2022-10-05T17:29:55.751Z,100.00
2022-10-05T17:39:59.159Z,100.00
2022-10-05T17:50:19.731Z,100.00
2022-10-05T18:00:40.950Z,100.00
2022-10-05T18:11:09.608Z,100.00
2022-10-05T18:21:14.593Z,100.00
2022-10-05T18:31:23.636Z,100.00
2022-10-05T18:41:28.880Z,100.00
2022-10-05T18:51:48.300Z,100.00
2022-10-05T19:02:26.394Z,100.00
2022-10-05T19:12:57.582Z,100.00
2022-10-05T19:23:25.039Z,100.00
2022-10-05T19:33:57.164Z,100.00
2022-10-05T19:44:23.263Z,100.00
2022-10-05T19:54:29.878Z,100.00
2022-10-05T20:04:43.380Z,100.00
2022-10-05T20:15:04.973Z,100.00
2022-10-05T20:25:18.929Z,100.00
2022-10-05T20:35:22.276Z,100.00
2022-10-05T20:45:23.921Z,100.00
2022-10-05T20:55:29.186Z,100.00
2022-10-05T21:05:30.878Z,100.00
2022-10-05T21:15:32.634Z,100.00
2022-10-05T21:25:34.269Z,100.00
2022-10-05T21:35:38.145Z,100.00
2022-10-05T21:45:40.507Z,100.00
2022-10-05T21:55:45.901Z,100.00
2022-10-05T22:05:48.404Z,100.00
2022-10-05T22:15:51.072Z,100.00
2022-10-05T22:25:53.335Z,100.00
2022-10-05T22:35:55.530Z,100.00
2022-10-05T22:45:57.958Z,100.00
2022-10-05T22:56:15.748Z,100.00
2022-10-05T23:06:19.622Z,100.00
2022-10-05T23:16:23.731Z,100.00
2022-10-05T23:26:26.207Z,100.00
2022-10-05T23:36:32.328Z,100.00
2022-10-05T23:46:33.905Z,100.00
2022-10-05T23:56:35.452Z,100.00
